createdAt,value
2023-02-28T00:02:47.047Z,8.25
2023-02-28T00:05:48.595Z,6.78
2023-02-28T00:08:50.155Z,9.48
2023-02-28T00:11:51.627Z,8.43
2023-02-28T00:14:53.235Z,8.45
2023-02-28T00:17:54.744Z,7.65
2023-02-28T00:20:56.330Z,8.32
2023-02-28T00:23:57.778Z,7.22
2023-02-28T00:26:59.288Z,6.53
2023-02-28T00:30:00.954Z,7.85
2023-02-28T00:33:02.471Z,6.60
2023-02-28T00:36:13.189Z,8.32
2023-02-28T00:39:14.621Z,7.90
2023-02-28T00:42:16.189Z,7.93
2023-02-28T00:45:17.797Z,8.48
2023-02-28T00:48:19.494Z,12.45
2023-02-28T00:51:20.983Z,6.55
2023-02-28T00:54:22.766Z,6.93
2023-02-28T00:57:24.326Z,7.22
2023-02-28T01:00:25.876Z,7.85
2023-02-28T01:03:27.396Z,9.52
2023-02-28T01:06:28.884Z,7.35
2023-02-28T01:09:30.599Z,7.38
2023-02-28T01:12:33.557Z,8.48
2023-02-28T01:15:35.158Z,8.45
2023-02-28T01:18:38.361Z,9.40
2023-02-28T01:21:39.892Z,7.63
2023-02-28T01:24:41.369Z,9.85
2023-02-28T01:27:42.889Z,8.82
2023-02-28T01:30:49.028Z,7.63
2023-02-28T01:33:50.811Z,8.57
2023-02-28T01:36:52.287Z,8.93
2023-02-28T01:39:54.177Z,8.60
2023-02-28T01:42:55.662Z,7.75
2023-02-28T01:45:59.007Z,6.15
2023-02-28T01:49:14.263Z,8.98
2023-02-28T01:52:18.872Z,7.95
2023-02-28T01:55:23.579Z,8.88
2023-02-28T01:58:25.596Z,7.50
2023-02-28T02:01:28.864Z,7.95
2023-02-28T02:04:39.612Z,6.72
2023-02-28T02:07:43.990Z,8.00
2023-02-28T02:10:55.115Z,7.75
2023-02-28T02:14:25.404Z,8.10
2023-02-28T02:17:31.202Z,7.95
2023-02-28T02:20:39.097Z,6.75
2023-02-28T02:24:02.046Z,8.07
2023-02-28T02:27:22.277Z,6.45
2023-02-28T02:30:43.640Z,8.90
2023-02-28T02:34:03.814Z,8.98
2023-02-28T02:37:24.155Z,8.70
2023-02-28T02:40:36.917Z,8.38
2023-02-28T02:43:52.452Z,6.82
2023-02-28T02:47:11.745Z,7.28
2023-02-28T02:50:20.722Z,7.43
2023-02-28T02:53:29.444Z,7.20
2023-02-28T02:56:34.238Z,6.03
2023-02-28T02:59:39.993Z,6.93
2023-02-28T03:02:42.517Z,6.55
2023-02-28T03:05:48.299Z,9.18
2023-02-28T03:08:50.700Z,8.63
2023-02-28T03:11:55.427Z,8.13
2023-02-28T03:15:23.018Z,7.50
2023-02-28T03:18:40.782Z,9.10
2023-02-28T03:22:09.596Z,7.40
2023-02-28T03:25:32.736Z,7.78
2023-02-28T03:28:48.755Z,8.93
2023-02-28T03:32:00.758Z,7.45
2023-02-28T03:35:25.379Z,8.50
2023-02-28T03:38:44.613Z,7.38
2023-02-28T03:41:52.575Z,9.13
2023-02-28T03:45:01.917Z,7.68
2023-02-28T03:48:22.948Z,8.60
2023-02-28T03:51:26.932Z,7.97
2023-02-28T03:54:34.027Z,8.85
2023-02-28T03:57:51.494Z,7.60
2023-02-28T04:01:00.092Z,7.25
2023-02-28T04:04:02.172Z,8.88
2023-02-28T04:07:12.302Z,8.80
2023-02-28T04:10:14.027Z,9.02
2023-02-28T04:13:15.530Z,8.05
2023-02-28T04:16:33.450Z,7.85
2023-02-28T04:19:35.807Z,8.57
2023-02-28T04:22:38.171Z,8.20
2023-02-28T04:25:41.291Z,7.97
2023-02-28T04:28:42.760Z,8.73
2023-02-28T04:31:44.324Z,9.25
2023-02-28T04:34:45.811Z,7.60
2023-02-28T04:37:47.294Z,9.00
2023-02-28T04:40:48.809Z,7.82
2023-02-28T04:43:52.791Z,9.45
2023-02-28T04:46:54.244Z,8.60
2023-02-28T04:49:55.846Z,8.88
2023-02-28T04:52:57.640Z,7.20
2023-02-28T04:55:59.584Z,7.15
2023-02-28T04:59:01.073Z,9.80
2023-02-28T05:02:07.512Z,8.75
2023-02-28T05:05:09.365Z,8.07
2023-02-28T05:08:10.939Z,7.38
2023-02-28T05:11:21.490Z,7.47
2023-02-28T05:14:22.998Z,8.55
2023-02-28T05:17:24.538Z,7.32
2023-02-28T05:20:26.256Z,8.40
2023-02-28T05:23:28.593Z,10.55
2023-02-28T05:26:30.766Z,6.85
2023-02-28T05:29:32.188Z,9.75
2023-02-28T05:32:33.658Z,8.70
2023-02-28T05:35:42.082Z,9.27
2023-02-28T05:38:43.700Z,7.28
2023-02-28T05:41:45.257Z,7.78
2023-02-28T05:44:47.260Z,8.20
2023-02-28T05:47:48.762Z,8.77
2023-02-28T05:50:50.292Z,9.75
2023-02-28T05:53:51.785Z,10.50
2023-02-28T05:56:53.266Z,10.27
2023-02-28T05:59:54.751Z,11.70
2023-02-28T06:02:58.951Z,9.05
2023-02-28T06:06:00.606Z,7.95
2023-02-28T06:09:03.179Z,10.07
2023-02-28T06:12:08.077Z,8.18
2023-02-28T06:15:14.974Z,11.05
2023-02-28T06:18:16.519Z,8.68
2023-02-28T06:21:18.024Z,9.77
2023-02-28T06:24:23.049Z,7.80
2023-02-28T06:27:24.806Z,10.38
2023-02-28T06:30:27.972Z,7.93
2023-02-28T06:33:29.512Z,9.03
2023-02-28T06:36:31.599Z,7.60
2023-02-28T06:39:33.238Z,8.85
2023-02-28T06:42:34.779Z,8.48
2023-02-28T06:45:36.755Z,9.93
2023-02-28T06:48:38.430Z,8.98
2023-02-28T06:51:46.096Z,9.07
2023-02-28T06:54:47.778Z,8.68
2023-02-28T06:57:51.540Z,7.32
2023-02-28T07:00:54.095Z,8.88
2023-02-28T07:03:55.983Z,10.10
2023-02-28T07:06:57.959Z,9.80
2023-02-28T07:09:59.524Z,8.35
2023-02-28T07:13:01.772Z,8.05
2023-02-28T07:16:09.773Z,8.88
2023-02-28T07:19:11.775Z,8.95
2023-02-28T07:22:15.812Z,8.48
2023-02-28T07:28:18.877Z,9.68
2023-02-28T07:31:20.420Z,11.50
2023-02-28T07:34:22.420Z,11.27
2023-02-28T07:37:23.917Z,18.35
2023-02-28T07:40:25.955Z,9.52
2023-02-28T07:43:27.514Z,14.68
2023-02-28T07:46:30.929Z,20.80
2023-02-28T07:49:33.126Z,12.85
2023-02-28T07:52:34.671Z,13.18
2023-02-28T07:55:36.094Z,19.33
2023-02-28T07:58:37.591Z,18.90
2023-02-28T08:01:39.179Z,12.55
2023-02-28T08:04:41.062Z,16.75
2023-02-28T08:07:42.740Z,16.33
2023-02-28T08:10:44.820Z,17.33
2023-02-28T08:13:46.636Z,12.20
2023-02-28T08:16:48.109Z,13.93
2023-02-28T08:19:50.175Z,14.25
2023-02-28T08:22:51.834Z,17.45
2023-02-28T08:25:57.179Z,21.85
2023-02-28T08:29:00.424Z,16.75
2023-02-28T08:32:03.136Z,20.27
2023-02-28T08:35:05.096Z,12.98
2023-02-28T08:38:06.604Z,15.52
2023-02-28T08:41:11.042Z,15.15
2023-02-28T08:44:12.557Z,12.30
2023-02-28T08:47:13.997Z,14.60
2023-02-28T08:50:15.972Z,11.63
2023-02-28T08:53:18.626Z,14.75
2023-02-28T08:56:20.546Z,14.43
2023-02-28T08:59:21.989Z,12.15
2023-02-28T09:02:23.442Z,14.07
2023-02-28T09:05:24.926Z,14.20
2023-02-28T09:08:28.366Z,17.70
2023-02-28T09:11:29.986Z,15.65
2023-02-28T09:14:31.837Z,19.80
2023-02-28T09:17:33.315Z,12.43
2023-02-28T09:20:34.841Z,26.38
2023-02-28T09:23:39.124Z,10.80
2023-02-28T09:26:43.483Z,14.50
2023-02-28T09:29:53.009Z,12.20
2023-02-28T09:32:54.688Z,13.23
2023-02-28T09:36:01.645Z,13.77
2023-02-28T09:39:04.030Z,14.27
2023-02-28T09:42:07.596Z,18.33
2023-02-28T09:45:23.717Z,14.23
2023-02-28T09:48:30.647Z,15.82
2023-02-28T09:51:52.338Z,12.80
2023-02-28T09:54:53.817Z,18.52
2023-02-28T09:57:57.617Z,13.20
2023-02-28T10:01:18.840Z,16.15
2023-02-28T10:04:38.873Z,13.10
2023-02-28T10:07:59.930Z,13.70
2023-02-28T10:11:07.199Z,15.13
2023-02-28T10:14:15.309Z,11.50
2023-02-28T10:17:34.548Z,14.75
2023-02-28T10:20:43.618Z,11.35
2023-02-28T10:23:48.869Z,13.90
2023-02-28T10:26:54.738Z,11.02
2023-02-28T10:29:59.030Z,15.18
2023-02-28T10:36:03.556Z,13.13
2023-02-28T10:39:47.343Z,14.63
2023-02-28T10:43:07.000Z,17.98
2023-02-28T10:46:11.828Z,16.33
2023-02-28T10:49:19.055Z,15.38
2023-02-28T10:52:40.958Z,14.90
2023-02-28T10:55:43.240Z,12.77
2023-02-28T10:58:52.526Z,13.98
2023-02-28T11:01:54.332Z,21.13
2023-02-28T11:04:56.947Z,13.77
2023-02-28T11:08:16.097Z,13.98
2023-02-28T11:11:18.657Z,12.52
2023-02-28T11:14:23.234Z,12.93
2023-02-28T11:17:32.825Z,17.42
2023-02-28T11:20:35.352Z,19.75
2023-02-28T11:23:41.388Z,14.15
2023-02-28T11:26:46.558Z,12.82
2023-02-28T11:29:48.804Z,14.02
2023-02-28T11:32:51.039Z,16.25
2023-02-28T11:35:54.973Z,15.20
2023-02-28T11:39:05.803Z,14.70
2023-02-28T11:42:22.481Z,12.48
2023-02-28T11:45:39.227Z,11.65
2023-02-28T11:48:58.037Z,11.75
2023-02-28T11:52:01.714Z,13.07
2023-02-28T11:55:26.385Z,12.43
2023-02-28T12:02:20.715Z,14.23
2023-02-28T12:05:35.084Z,13.07
2023-02-28T12:08:48.975Z,12.93
2023-02-28T12:11:57.084Z,13.13
2023-02-28T12:15:13.798Z,20.83
2023-02-28T12:18:30.426Z,14.80
2023-02-28T12:21:37.989Z,14.20
2023-02-28T12:25:01.137Z,13.35
2023-02-28T12:28:03.836Z,13.98
2023-02-28T12:31:12.228Z,17.50
2023-02-28T12:34:18.755Z,15.43
2023-02-28T12:37:30.992Z,15.98
2023-02-28T12:41:03.423Z,14.93
2023-02-28T12:44:13.340Z,14.32
2023-02-28T12:47:17.606Z,22.02
2023-02-28T12:53:39.182Z,13.20
2023-02-28T12:57:06.802Z,19.50
2023-02-28T13:00:16.479Z,14.23
2023-02-28T13:03:33.184Z,14.10
2023-02-28T13:06:56.459Z,14.70
2023-02-28T13:10:01.887Z,14.48
2023-02-28T13:13:05.018Z,15.88
2023-02-28T13:16:06.567Z,15.80
2023-02-28T13:19:12.592Z,14.93
2023-02-28T13:22:39.057Z,18.30
2023-02-28T13:25:40.498Z,15.18
2023-02-28T13:29:01.939Z,14.70
2023-02-28T13:32:06.590Z,14.98
2023-02-28T13:35:08.052Z,15.45
2023-02-28T13:38:17.491Z,16.98
2023-02-28T13:41:36.879Z,14.18
2023-02-28T13:45:04.603Z,11.60
2023-02-28T13:48:19.810Z,15.68
2023-02-28T13:51:41.820Z,14.98
2023-02-28T13:54:49.430Z,13.20
2023-02-28T13:58:25.366Z,13.60
2023-02-28T14:01:29.879Z,13.43
2023-02-28T14:04:37.489Z,15.88
2023-02-28T14:07:46.863Z,14.65
2023-02-28T14:10:51.407Z,14.05
2023-02-28T14:13:52.912Z,14.00
2023-02-28T14:16:55.488Z,15.73
2023-02-28T14:19:58.668Z,17.52
2023-02-28T14:23:26.421Z,17.60
2023-02-28T14:26:49.883Z,17.05
2023-02-28T14:29:51.328Z,21.25
2023-02-28T14:33:16.644Z,15.48
2023-02-28T14:36:27.178Z,14.18
2023-02-28T14:39:31.870Z,15.73
2023-02-28T14:42:35.857Z,18.40
2023-02-28T14:45:38.440Z,14.52
2023-02-28T14:48:40.023Z,15.45
2023-02-28T14:51:41.664Z,16.50
2023-02-28T14:54:45.063Z,18.88
2023-02-28T14:57:56.771Z,15.40
2023-02-28T15:01:04.436Z,15.23
2023-02-28T15:04:15.117Z,15.13
2023-02-28T15:07:16.773Z,15.32
2023-02-28T15:10:23.832Z,15.90
2023-02-28T15:13:40.650Z,15.68
2023-02-28T15:16:45.647Z,16.58
2023-02-28T15:19:51.383Z,14.90
2023-02-28T15:22:57.487Z,17.08
2023-02-28T15:26:00.199Z,15.35
2023-02-28T15:29:06.473Z,15.30
2023-02-28T15:32:19.278Z,15.88
2023-02-28T15:35:29.907Z,19.80
2023-02-28T15:38:36.991Z,15.85
2023-02-28T15:41:39.111Z,16.40
2023-02-28T15:44:40.774Z,16.52
2023-02-28T15:47:47.218Z,14.75
2023-02-28T15:50:55.130Z,19.23
2023-02-28T15:54:08.618Z,16.83
2023-02-28T15:57:18.280Z,16.67
2023-02-28T16:00:23.674Z,15.20
2023-02-28T16:03:35.925Z,17.30
2023-02-28T16:06:45.395Z,16.92
2023-02-28T16:09:48.118Z,19.25
2023-02-28T16:12:49.641Z,15.95
2023-02-28T16:15:52.318Z,14.68
2023-02-28T16:18:53.928Z,20.55
2023-02-28T16:21:55.872Z,15.60
2023-02-28T16:24:57.351Z,18.52
2023-02-28T16:28:01.250Z,18.80
2023-02-28T16:31:05.409Z,18.85
2023-02-28T16:37:13.961Z,18.95
2023-02-28T16:40:18.435Z,17.80
2023-02-28T16:43:25.895Z,17.42
2023-02-28T16:46:35.509Z,18.35
2023-02-28T16:49:37.139Z,18.20
2023-02-28T16:52:38.567Z,18.85
2023-02-28T16:55:40.330Z,18.95
2023-02-28T16:58:41.940Z,15.77
2023-02-28T17:01:43.531Z,14.48
2023-02-28T17:04:45.125Z,16.83
2023-02-28T17:07:48.043Z,17.63
2023-02-28T17:10:49.670Z,29.17
2023-02-28T17:13:51.516Z,24.92
2023-02-28T17:16:52.958Z,24.10
2023-02-28T17:19:54.446Z,24.27
2023-02-28T17:22:57.161Z,18.27
2023-02-28T17:25:58.732Z,20.60
2023-02-28T17:29:00.165Z,22.27
2023-02-28T17:32:12.205Z,24.48
2023-02-28T17:35:18.598Z,23.48
2023-02-28T17:38:20.564Z,24.83
2023-02-28T17:41:22.158Z,28.60
2023-02-28T17:44:25.092Z,26.02
2023-02-28T17:47:26.546Z,24.40
2023-02-28T17:50:28.218Z,24.92
2023-02-28T17:53:31.122Z,37.70
2023-02-28T17:56:32.948Z,28.05
2023-02-28T17:59:34.658Z,34.88
2023-02-28T18:02:36.206Z,36.42
2023-02-28T18:05:38.182Z,30.55
2023-02-28T18:08:40.094Z,22.65
2023-02-28T18:11:50.012Z,22.67
2023-02-28T18:14:51.476Z,20.58
2023-02-28T18:17:52.968Z,21.27
2023-02-28T18:20:54.598Z,21.55
2023-02-28T18:23:57.107Z,32.17
2023-02-28T18:26:58.705Z,23.70
2023-02-28T18:30:00.232Z,23.52
2023-02-28T18:33:02.383Z,21.00
2023-02-28T18:36:04.172Z,26.45
2023-02-28T18:39:06.008Z,23.80
2023-02-28T18:42:07.706Z,24.33
2023-02-28T18:45:09.882Z,36.60
2023-02-28T18:48:11.372Z,36.47
2023-02-28T18:51:17.375Z,37.75
2023-02-28T18:54:19.182Z,45.38
2023-02-28T18:57:20.602Z,32.97
2023-02-28T19:00:22.798Z,25.10
2023-02-28T19:03:24.327Z,20.92
2023-02-28T19:06:26.845Z,21.77
2023-02-28T19:09:28.362Z,25.60
2023-02-28T19:12:34.240Z,21.15
2023-02-28T19:15:35.722Z,24.27
2023-02-28T19:18:39.018Z,21.60
2023-02-28T19:21:40.468Z,25.98
2023-02-28T19:24:41.917Z,24.25
2023-02-28T19:27:43.450Z,21.25
2023-02-28T19:30:49.794Z,25.60
2023-02-28T19:33:54.366Z,22.42
2023-02-28T19:36:56.809Z,20.75
2023-02-28T19:39:58.658Z,20.17
2023-02-28T19:43:02.969Z,20.60
2023-02-28T19:46:05.703Z,20.20
2023-02-28T19:49:07.275Z,23.58
2023-02-28T19:52:13.269Z,25.02
2023-02-28T19:55:17.577Z,27.38
2023-02-28T19:58:19.693Z,25.95
2023-02-28T20:01:21.328Z,23.90
2023-02-28T20:04:23.828Z,22.00
2023-02-28T20:07:25.413Z,27.08
2023-02-28T20:10:26.912Z,26.30
2023-02-28T20:13:28.731Z,29.20
2023-02-28T20:16:31.390Z,32.60
2023-02-28T20:19:33.558Z,32.17
2023-02-28T20:22:38.281Z,29.80
2023-02-28T20:25:40.824Z,25.27
2023-02-28T20:28:43.379Z,24.20
2023-02-28T20:31:45.229Z,33.63
2023-02-28T20:34:46.716Z,42.03
2023-02-28T20:37:48.207Z,26.15
2023-02-28T20:40:49.695Z,25.25
2023-02-28T20:43:58.020Z,29.45
2023-02-28T20:47:00.704Z,25.98
2023-02-28T20:50:02.196Z,23.77
2023-02-28T20:53:03.735Z,25.52
2023-02-28T20:56:16.114Z,23.75
2023-02-28T20:59:17.645Z,27.13
2023-02-28T21:02:19.419Z,24.85
2023-02-28T21:05:20.997Z,25.48
2023-02-28T21:08:22.617Z,23.40
2023-02-28T21:11:28.131Z,23.40
2023-02-28T21:14:32.033Z,24.83
2023-02-28T21:17:33.584Z,27.35
2023-02-28T21:20:34.988Z,24.60
2023-02-28T21:23:36.496Z,26.88
2023-02-28T21:26:39.928Z,26.23
2023-02-28T21:29:41.495Z,27.23
2023-02-28T21:32:43.019Z,25.80
2023-02-28T21:35:46.605Z,26.52
2023-02-28T21:38:54.719Z,25.60
2023-02-28T21:41:57.242Z,23.52
2023-02-28T21:44:58.845Z,25.38
2023-02-28T21:48:00.356Z,24.80
2023-02-28T21:51:05.006Z,28.27
2023-02-28T21:54:06.563Z,26.80
2023-02-28T21:57:08.135Z,22.92
2023-02-28T22:00:11.659Z,22.52
2023-02-28T22:03:15.696Z,23.45
2023-02-28T22:06:23.874Z,26.10
2023-02-28T22:09:26.035Z,23.85
2023-02-28T22:12:30.308Z,23.88
2023-02-28T22:15:36.739Z,23.42
2023-02-28T22:18:41.733Z,23.42
2023-02-28T22:21:43.243Z,24.88
2023-02-28T22:24:50.298Z,23.02
2023-02-28T22:27:51.831Z,27.38
2023-02-28T22:30:53.598Z,22.65
2023-02-28T22:33:58.429Z,22.45
2023-02-28T22:36:59.874Z,22.73
2023-02-28T22:40:01.335Z,22.73
2023-02-28T22:43:03.197Z,24.15
2023-02-28T22:46:07.533Z,23.70
2023-02-28T22:49:08.974Z,22.58
2023-02-28T22:52:10.519Z,23.30
2023-02-28T22:55:12.104Z,24.02
2023-02-28T22:58:13.529Z,26.67
2023-02-28T23:01:16.660Z,21.02
2023-02-28T23:04:18.901Z,26.30
2023-02-28T23:07:20.904Z,23.70
2023-02-28T23:10:22.353Z,24.27
2023-02-28T23:13:23.802Z,21.58
2023-02-28T23:16:40.457Z,24.48
2023-02-28T23:19:42.136Z,21.50
2023-02-28T23:22:50.432Z,24.70
2023-02-28T23:25:51.969Z,20.27
2023-02-28T23:28:53.426Z,22.23
2023-02-28T23:31:55.864Z,19.70
2023-02-28T23:34:57.524Z,23.63
2023-02-28T23:37:59.523Z,23.08
2023-02-28T23:41:01.090Z,20.08
2023-02-28T23:44:02.512Z,24.38
2023-02-28T23:47:04.079Z,23.33
2023-02-28T23:50:05.895Z,25.83
2023-02-28T23:53:07.701Z,26.10
2023-02-28T23:56:11.176Z,25.58
2023-02-28T23:59:13.024Z,23.70
